Portada
METAR-TAF:

METAR-TAF

Aeroports :

Rodés, França

latitud: 44-24N, longitud: 002-29E, altitud: 581 m

Observació

L'informe es va fer fa 40 minuts, a les 15:30 UTC
Vent 2 kt amb direcció variable
Temperatura 24°C
Humitat 38%
Pressió 1027 hPa
Visibilitat 10 km o més
sense núvols per sota de 1500 mi sense presència de cumulonimbus.

METAR: LFCR 271530Z AUTO VRB02KT CAVOK 24/09 Q1027 NOSIG

Hora: 18:10 (16:10 UTC)

Pronòstic

L'informe es va fer fa 5 hores i 10 minuts, a les 11:00 UTC
Pronòstic vàlid del 27 a les 12 UTC al 28 a les 12 UTC
Vent 3 kt amb direcció variable
Visibilitat 10 km o més
sense núvols per sota de 1500 mi sense presència de cumulonimbus.
Temporalment
l' 27 a les 15 UTC al 27 a les 22 UTC
Vent 8 kt del Sud/Sud-Est
Temporalment
l' 28 a les 01 UTC al 28 a les 08 UTC
Vent 6 kt del Est/Sud-Est

TAF: LFCR 271100Z 2712/2812 VRB03KT CAVOK TEMPO 2715/2722 16008KT TEMPO 2801/2808 11006KT

Observacions i pronòstics meteorològics de més de 4000 aeroports (METAR i TAF).

Les estacions disponibles són els punts grocs i vermells al mapa.

Posi el ratolí al punt desitjat per veure el nom de l'estació.

Feu clic per veure les observacions i els pronòstics meteorològics.

Per canviar el mapa: feu clic els botons verds amb una creu de color negre per apropar; al botó verd amb un guió per allunyar la imatge; o en les fletxes verdes per a mapes adjacents.


METAR-TAF: